Time;durP1;ratioP1;P1;durP2;ratioP2;P2;SDS_P1;SDS_P2;PMS_P1;PMS_P2;Temp;Humidity;BMP_temperature;BMP_pressure;BME280_temperature;BME280_humidity;BME280_pressure;Samples;Min_cycle;Max_cycle;Signal;HPM_P1;HPM_P2
2023/05/14 00:00:53;;;;;;;;;;;;;;;20.99;55.20;97473.55;619568;229;66971;-60
2023/05/14 00:03:21;;;;;;;;;;;;;;;21.00;55.40;97469.00;619554;229;65065;-60
2023/05/14 00:05:48;;;;;;;;;;;;;;;20.99;55.81;97468.20;619559;229;65229;-60
2023/05/14 00:08:16;;;;;;;;;;;;;;;20.98;55.14;97469.28;619653;229;67058;-60
2023/05/14 00:10:43;;;;;;;;;;;;;;;20.98;56.25;97461.27;619542;228;64912;-59
2023/05/14 00:13:11;;;;;;;;;;;;;;;20.98;54.52;97450.58;619561;229;67188;-60
2023/05/14 00:15:38;;;;;;;;;;;;;;;20.98;56.82;97452.42;619613;229;67127;-60
2023/05/14 00:18:06;;;;;;;;;;;;;;;20.96;56.21;97455.37;619593;229;64980;-60
2023/05/14 00:20:33;;;;;;;;;;;;;;;20.97;57.11;97456.96;619642;229;65153;-60
2023/05/14 00:23:00;;;;;;;;;;;;;;;20.96;56.00;97458.04;619595;229;64973;-60
2023/05/14 00:25:28;;;;;;;;;;;;;;;20.97;55.26;97453.49;619556;229;62755;-60
2023/05/14 00:27:56;;;;;;;;;;;;;;;20.95;56.25;97450.27;619487;229;67316;-60
2023/05/14 00:30:23;;;;;;;;;;;;;;;20.96;55.94;97449.22;619619;229;66887;-60
2023/05/14 00:32:51;;;;;;;;;;;;;;;20.95;55.53;97435.06;619635;229;65274;-60
2023/05/14 00:35:20;;;;;;;;;;;;;;;20.94;55.61;97430.77;619574;229;68038;-60
2023/05/14 00:37:47;;;;;;;;;;;;;;;20.95;56.11;97434.23;619578;229;64866;-59
2023/05/14 00:40:15;;;;;;;;;;;;;;;20.94;55.87;97428.09;619583;229;62800;-59
2023/05/14 00:42:43;;;;;;;;;;;;;;;20.93;56.90;97426.50;619553;229;67241;-59
2023/05/14 00:45:10;;;;;;;;;;;;;;;20.93;56.19;97429.17;617446;229;67651;-59
2023/05/14 00:47:39;;;;;;;;;;;;;;;20.93;56.27;97426.50;617518;229;65099;-58
2023/05/14 00:50:07;;;;;;;;;;;;;;;20.93;56.67;97415.81;614657;229;64591;-58
2023/05/14 00:52:34;;;;;;;;;;;;;;;20.93;56.42;97412.34;618967;229;67368;-58
2023/05/14 00:55:03;;;;;;;;;;;;;;;20.92;56.12;97402.70;618928;229;64977;-58
2023/05/14 00:57:31;;;;;;;;;;;;;;;20.92;55.86;97397.36;618980;229;67077;-59
2023/05/14 00:59:59;;;;;;;;;;;;;;;20.91;56.67;97396.56;619599;229;66977;-59
2023/05/14 01:02:26;;;;;;;;;;;;;;;20.91;57.51;97401.91;619575;229;62893;-59
2023/05/14 01:04:54;;;;;;;;;;;;;;;20.91;56.45;97404.58;619556;229;64924;-59
2023/05/14 01:07:32;;;;;;;;;;;;;;;20.90;57.24;97400.31;619568;229;64806;-59
2023/05/14 01:10:04;;;;;;;;;;;;;;;20.91;57.71;97404.58;619569;229;65270;-59
2023/05/14 01:12:45;;;;;;;;;;;;;;;20.90;55.64;97391.47;619458;228;66773;-59
2023/05/14 01:15:17;;;;;;;;;;;;;;;20.89;55.47;97398.68;619407;228;66973;-59
2023/05/14 01:17:47;;;;;;;;;;;;;;;20.89;55.20;97396.01;619323;228;65704;-59
2023/05/14 01:20:15;;;;;;;;;;;;;;;20.88;55.34;97402.43;619335;228;67533;-59
2023/05/14 01:22:42;;;;;;;;;;;;;;;20.89;57.40;97397.88;619589;229;64893;-59
2023/05/14 01:25:10;;;;;;;;;;;;;;;20.87;55.12;97398.16;619544;229;65035;-59
2023/05/14 01:27:55;;;;;;;;;;;;;;;20.88;56.66;97402.43;619606;229;67516;-59
2023/05/14 01:30:24;;;;;;;;;;;;;;;20.88;56.47;97401.63;619586;229;67969;-59
2023/05/14 01:32:53;;;;;;;;;;;;;;;20.88;56.72;97404.30;619477;228;65894;-59
2023/05/14 01:35:22;;;;;;;;;;;;;;;20.86;55.43;97401.87;619556;229;67218;-59
2023/05/14 01:37:50;;;;;;;;;;;;;;;20.86;56.56;97399.20;619563;229;67844;-59
2023/05/14 01:40:18;;;;;;;;;;;;;;;20.86;55.68;97396.53;619573;229;64997;-59
2023/05/14 01:42:46;;;;;;;;;;;;;;;20.85;56.08;97394.94;619592;228;64993;-59
2023/05/14 01:45:13;;;;;;;;;;;;;;;20.87;56.85;97389.32;619538;229;65048;-59
2023/05/14 01:47:41;;;;;;;;;;;;;;;20.85;56.32;97384.25;619547;229;66053;-59
2023/05/14 01:50:09;;;;;;;;;;;;;;;20.84;56.32;97387.97;619562;229;65014;-59
2023/05/14 01:52:37;;;;;;;;;;;;;;;20.84;55.16;97385.30;619575;229;67139;-59
2023/05/14 01:55:05;;;;;;;;;;;;;;;20.84;56.15;97393.31;619633;229;62643;-59
2023/05/14 01:57:33;;;;;;;;;;;;;;;20.84;55.56;97385.30;619549;229;64489;-58
2023/05/14 02:00:01;;;;;;;;;;;;;;;20.84;56.21;97385.30;619585;229;67271;-58
2023/05/14 02:02:29;;;;;;;;;;;;;;;20.83;54.70;97386.37;619611;229;62512;-58
2023/05/14 02:04:56;;;;;;;;;;;;;;;20.84;56.56;97385.30;619573;229;67196;-58
2023/05/14 02:07:24;;;;;;;;;;;;;;;20.84;57.14;97382.62;619656;229;67235;-58
2023/05/14 02:09:52;;;;;;;;;;;;;;;20.82;56.62;97385.58;619625;229;66083;-58
2023/05/14 02:12:20;;;;;;;;;;;;;;;20.81;54.76;97388.49;619540;228;67846;-58
2023/05/14 02:14:47;;;;;;;;;;;;;;;20.82;57.67;97382.91;619593;229;66888;-58
2023/05/14 02:17:16;;;;;;;;;;;;;;;20.82;55.97;97387.45;619613;229;64977;-59
2023/05/14 02:19:44;;;;;;;;;;;;;;;20.82;56.08;97395.47;619595;229;67029;-60
2023/05/14 02:22:11;;;;;;;;;;;;;;;20.82;55.97;97390.12;619671;229;67585;-59
2023/05/14 02:24:39;;;;;;;;;;;;;;;20.81;55.95;97394.63;619601;229;66081;-60
2023/05/14 02:27:07;;;;;;;;;;;;;;;20.82;56.52;97392.80;619625;229;66653;-60
2023/05/14 02:29:34;;;;;;;;;;;;;;;20.81;57.49;97397.30;619651;229;64610;-60
2023/05/14 02:32:02;;;;;;;;;;;;;;;20.80;55.82;97406.39;619607;229;65017;-60
2023/05/14 02:34:32;;;;;;;;;;;;;;;20.80;55.85;97401.05;619651;229;67173;-60
2023/05/14 02:36:59;;;;;;;;;;;;;;;20.80;55.51;97400.25;619591;229;66647;-60
2023/05/14 02:39:27;;;;;;;;;;;;;;;20.79;56.58;97388.77;619631;229;64890;-59
2023/05/14 02:41:55;;;;;;;;;;;;;;;20.79;56.57;97391.45;619621;229;66683;-59
2023/05/14 02:44:22;;;;;;;;;;;;;;;20.78;56.08;97381.80;619615;229;66679;-59
2023/05/14 02:46:49;;;;;;;;;;;;;;;20.79;55.17;97390.64;619637;229;64876;-59
2023/05/14 02:49:17;;;;;;;;;;;;;;;20.78;56.33;97383.67;619610;229;67179;-59
2023/05/14 02:51:44;;;;;;;;;;;;;;;20.79;58.30;97387.97;619555;229;66905;-59
2023/05/14 02:54:12;;;;;;;;;;;;;;;20.78;57.29;97389.02;619621;229;64990;-59
2023/05/14 02:56:39;;;;;;;;;;;;;;;20.77;57.25;97390.89;619538;229;67089;-60
2023/05/14 02:59:07;;;;;;;;;;;;;;;20.77;55.07;97395.44;619654;229;64996;-59
2023/05/14 03:01:34;;;;;;;;;;;;;;;20.76;56.15;97393.81;619606;229;62667;-60
2023/05/14 03:04:02;;;;;;;;;;;;;;;20.77;56.09;97390.09;619551;229;66992;-60
2023/05/14 03:06:30;;;;;;;;;;;;;;;20.76;55.93;97388.47;619583;229;66837;-60
2023/05/14 03:08:58;;;;;;;;;;;;;;;20.75;55.73;97394.88;619578;229;62771;-59
2023/05/14 03:11:25;;;;;;;;;;;;;;;20.76;56.43;97399.98;620973;227;67469;-60
2023/05/14 03:13:53;;;;;;;;;;;;;;;20.75;56.20;97387.67;624125;227;66635;-60
2023/05/14 03:16:20;;;;;;;;;;;;;;;20.74;55.04;97395.96;624030;227;65814;-60
2023/05/14 03:18:47;;;;;;;;;;;;;;;20.76;57.43;97396.48;624044;227;65858;-59
2023/05/14 03:21:15;;;;;;;;;;;;;;;20.75;57.25;97392.22;624034;227;65152;-60
2023/05/14 03:23:43;;;;;;;;;;;;;;;20.74;55.69;97390.62;624045;227;65125;-60
2023/05/14 03:26:10;;;;;;;;;;;;;;;20.74;56.36;97393.28;624076;227;67724;-60
2023/05/14 03:28:38;;;;;;;;;;;;;;;20.74;55.42;97401.30;624020;227;64766;-60
2023/05/14 03:31:05;;;;;;;;;;;;;;;20.73;56.14;97397.80;624061;227;62908;-59
2023/05/14 03:33:33;;;;;;;;;;;;;;;20.74;57.53;97398.62;624009;227;65051;-59
2023/05/14 03:36:00;;;;;;;;;;;;;;;20.73;56.58;97399.67;624081;227;65451;-59
2023/05/14 03:38:28;;;;;;;;;;;;;;;20.74;56.46;97406.64;624135;227;63080;-59
2023/05/14 03:40:56;;;;;;;;;;;;;;;20.73;56.67;97405.02;624064;227;63998;-60
2023/05/14 03:43:24;;;;;;;;;;;;;;;20.71;56.13;97407.96;624074;227;64673;-59
2023/05/14 03:45:51;;;;;;;;;;;;;;;20.71;55.92;97401.82;624004;227;64969;-60
2023/05/14 03:48:19;;;;;;;;;;;;;;;20.72;56.16;97400.75;624085;227;67198;-59
2023/05/14 03:50:47;;;;;;;;;;;;;;;20.71;55.58;97407.16;624116;227;64705;-60
2023/05/14 03:53:15;;;;;;;;;;;;;;;20.71;56.73;97402.63;624053;227;62773;-59
2023/05/14 03:55:42;;;;;;;;;;;;;;;20.71;57.73;97409.84;624076;227;66873;-60
2023/05/14 03:58:12;;;;;;;;;;;;;;;20.70;56.71;97422.36;624067;227;65545;-60
2023/05/14 04:00:41;;;;;;;;;;;;;;;20.70;55.54;97418.89;624059;227;62674;-60
2023/05/14 04:03:10;;;;;;;;;;;;;;;20.70;55.98;97424.23;624092;227;66884;-60
2023/05/14 04:05:38;;;;;;;;;;;;;;;20.69;56.95;97415.42;624093;227;64451;-60
2023/05/14 04:08:06;;;;;;;;;;;;;;;20.69;56.59;97403.94;624076;227;65676;-60
2023/05/14 04:10:33;;;;;;;;;;;;;;;20.68;55.65;97407.66;623992;227;67655;-60
2023/05/14 04:13:01;;;;;;;;;;;;;;;20.69;57.34;97399.40;619563;227;67728;-60
2023/05/14 04:15:30;;;;;;;;;;;;;;;20.67;56.27;97396.17;619594;228;42320;-60
2023/05/14 04:17:57;;;;;;;;;;;;;;;20.67;55.58;97392.70;619675;229;65302;-60
2023/05/14 04:20:25;;;;;;;;;;;;;;;20.67;56.79;97398.84;619596;229;64194;-60
2023/05/14 04:22:53;;;;;;;;;;;;;;;20.67;55.94;97395.37;619604;229;62879;-60
2023/05/14 04:25:21;;;;;;;;;;;;;;;20.68;56.10;97407.66;619562;229;67044;-60
2023/05/14 04:27:49;;;;;;;;;;;;;;;20.67;56.78;97408.73;619619;229;66505;-60
2023/05/14 04:30:17;;;;;;;;;;;;;;;20.66;55.86;97397.25;619651;229;64993;-60
2023/05/14 04:32:44;;;;;;;;;;;;;;;20.67;56.49;97400.72;619627;229;64846;-60
2023/05/14 04:35:12;;;;;;;;;;;;;;;20.66;57.23;97415.14;619571;229;66943;-60
2023/05/14 04:37:39;;;;;;;;;;;;;;;20.66;55.71;97415.14;619602;229;64932;-60
2023/05/14 04:40:07;;;;;;;;;;;;;;;20.66;56.11;97420.48;614789;229;66885;-60
2023/05/14 04:42:35;;;;;;;;;;;;;;;20.66;57.40;97407.93;619475;229;66859;-60
2023/05/14 04:45:04;;;;;;;;;;;;;;;20.65;56.55;97408.17;619641;229;65113;-60
2023/05/14 04:47:31;;;;;;;;;;;;;;;20.65;57.43;97408.97;619574;229;66797;-60
2023/05/14 04:49:59;;;;;;;;;;;;;;;20.64;55.43;97399.37;619605;229;66909;-60
2023/05/14 04:52:26;;;;;;;;;;;;;;;20.63;55.47;97397.77;619599;229;64986;-60
2023/05/14 04:54:55;;;;;;;;;;;;;;;20.64;56.96;97395.90;619581;229;66643;-60
2023/05/14 04:57:23;;;;;;;;;;;;;;;20.65;57.20;97402.84;619668;229;66814;-60
2023/05/14 04:59:50;;;;;;;;;;;;;;;20.63;57.39;97400.44;619566;229;65051;-60
2023/05/14 05:02:18;;;;;;;;;;;;;;;20.63;55.66;97394.30;619591;229;65084;-60
2023/05/14 05:04:46;;;;;;;;;;;;;;;20.61;55.36;97390.00;619607;229;66690;-60
2023/05/14 05:07:13;;;;;;;;;;;;;;;20.63;57.47;97394.30;619564;229;62861;-60
2023/05/14 05:09:41;;;;;;;;;;;;;;;20.62;57.49;97398.81;619630;229;64535;-60
2023/05/14 05:12:08;;;;;;;;;;;;;;;20.61;57.17;97398.02;622340;227;64713;-60
2023/05/14 05:14:36;;;;;;;;;;;;;;;20.60;56.92;97396.42;624080;227;65102;-60
2023/05/14 05:17:03;;;;;;;;;;;;;;;20.60;56.27;97385.73;624066;227;67049;-60
2023/05/14 05:19:31;;;;;;;;;;;;;;;20.61;56.76;97400.69;619315;227;64661;-60
2023/05/14 05:21:58;;;;;;;;;;;;;;;20.60;56.44;97391.08;619690;229;63026;-60
2023/05/14 05:24:26;;;;;;;;;;;;;;;20.60;57.64;97401.77;622790;227;64586;-60
2023/05/14 05:26:54;;;;;;;;;;;;;;;20.59;55.56;97396.66;624030;227;64734;-60
2023/05/14 05:29:22;;;;;;;;;;;;;;;20.59;56.52;97394.00;624062;227;64910;-60
2023/05/14 05:31:49;;;;;;;;;;;;;;;20.59;56.88;97410.81;623978;227;66874;-60
2023/05/14 05:34:19;;;;;;;;;;;;;;;20.59;56.81;97402.01;624081;227;66966;-60
2023/05/14 05:36:47;;;;;;;;;;;;;;;20.60;58.49;97403.63;624116;227;65071;-60
2023/05/14 05:39:15;;;;;;;;;;;;;;;20.58;57.53;97398.53;624063;227;66978;-60
2023/05/14 05:41:43;;;;;;;;;;;;;;;20.58;57.68;97400.41;624083;227;66682;-60
2023/05/14 05:44:10;;;;;;;;;;;;;;;20.58;57.74;97401.21;624044;227;63810;-60
2023/05/14 05:46:39;;;;;;;;;;;;;;;20.55;56.60;97393.72;623990;227;66771;-60
2023/05/14 05:49:07;;;;;;;;;;;;;;;20.57;56.61;97391.60;618288;228;67014;-60
2023/05/14 05:51:34;;;;;;;;;;;;;;;20.57;56.59;97390.77;620257;228;65097;-60
2023/05/14 05:54:04;;;;;;;;;;;;;;;20.56;55.77;97394.52;620133;228;44462;-59
2023/05/14 05:56:31;;;;;;;;;;;;;;;20.56;56.51;97395.31;621588;227;64688;-60
2023/05/14 05:58:59;;;;;;;;;;;;;;;20.55;55.96;97390.25;624041;227;62936;-59
2023/05/14 06:01:26;;;;;;;;;;;;;;;20.55;56.92;97393.72;624101;227;66736;-60
2023/05/14 06:03:54;;;;;;;;;;;;;;;20.55;56.06;97399.06;618341;227;64188;-60
2023/05/14 06:06:22;;;;;;;;;;;;;;;20.55;56.22;97390.25;624051;227;65086;-60
2023/05/14 06:08:49;;;;;;;;;;;;;;;20.56;57.45;97389.17;624005;227;66549;-60
2023/05/14 06:11:17;;;;;;;;;;;;;;;20.54;54.68;97397.46;624005;227;66641;-60
2023/05/14 06:13:44;;;;;;;;;;;;;;;20.55;55.52;97408.94;624035;227;63885;-60
2023/05/14 06:16:15;;;;;;;;;;;;;;;20.54;55.45;97408.14;623887;227;45192;-60
2023/05/14 06:18:45;;;;;;;;;;;;;;;20.55;55.92;97409.73;624066;227;66856;-60
2023/05/14 06:21:13;;;;;;;;;;;;;;;20.54;56.93;97418.83;624036;227;64953;-60
2023/05/14 06:23:41;;;;;;;;;;;;;;;20.54;56.68;97413.48;624029;227;66845;-60
2023/05/14 06:26:08;;;;;;;;;;;;;;;20.55;56.82;97415.08;619001;228;64768;-60
2023/05/14 06:28:36;;;;;;;;;;;;;;;20.54;57.64;97421.49;623706;227;62850;-60
2023/05/14 06:31:03;;;;;;;;;;;;;;;20.55;57.97;97420.42;624100;227;66523;-60
2023/05/14 06:33:31;;;;;;;;;;;;;;;20.56;56.99;97437.23;624083;227;66467;-60
2023/05/14 06:35:59;;;;;;;;;;;;;;;20.55;57.77;97436.44;624060;227;62933;-60
2023/05/14 06:38:27;;;;;;;;;;;;;;;20.55;57.83;97444.45;624053;227;66779;-60
2023/05/14 06:40:54;;;;;;;;;;;;;;;20.55;58.34;97452.46;624100;227;66451;-60
2023/05/14 06:43:22;;;;;;;;;;;;;;;20.55;57.21;97449.79;624046;227;65004;-60
2023/05/14 06:45:50;;;;;;;;;;;;;;;20.55;58.11;97451.66;624078;227;64218;-60
2023/05/14 06:48:18;;;;;;;;;;;;;;;20.55;58.31;97457.80;624095;227;64596;-60
2023/05/14 06:50:46;;;;;;;;;;;;;;;20.55;57.59;97463.14;624101;227;62831;-60
2023/05/14 06:53:14;;;;;;;;;;;;;;;20.55;56.99;97459.67;624104;227;66688;-60
2023/05/14 06:55:41;;;;;;;;;;;;;;;20.55;56.24;97459.67;624107;227;66464;-60
2023/05/14 06:58:09;;;;;;;;;;;;;;;20.54;58.72;97453.53;624054;227;64999;-61
2023/05/14 07:00:37;;;;;;;;;;;;;;;20.55;59.17;97457.80;624087;227;66980;-60
2023/05/14 07:03:06;;;;;;;;;;;;;;;20.54;57.18;97456.20;623855;227;66705;-60
2023/05/14 07:05:33;;;;;;;;;;;;;;;20.56;58.22;97458.59;624092;227;62978;-60
2023/05/14 07:08:01;;;;;;;;;;;;;;;20.55;57.20;97462.34;624007;227;66831;-60
2023/05/14 07:10:29;;;;;;;;;;;;;;;20.55;57.20;97465.02;624055;227;66644;-60
2023/05/14 07:12:57;;;;;;;;;;;;;;;20.54;58.63;97469.55;619723;227;65054;-60
2023/05/14 07:15:24;;;;;;;;;;;;;;;20.54;57.68;97469.55;619625;229;66877;-60
2023/05/14 07:17:52;;;;;;;;;;;;;;;20.54;58.32;97461.55;619657;229;66827;-60
2023/05/14 07:20:19;;;;;;;;;;;;;;;20.54;56.94;97463.39;619665;229;65057;-60
2023/05/14 07:22:47;;;;;;;;;;;;;;;20.54;58.36;97464.22;619598;229;67428;-60
2023/05/14 07:25:14;;;;;;;;;;;;;;;20.55;58.50;97463.14;619600;229;66887;-61
2023/05/14 07:27:42;;;;;;;;;;;;;;;20.54;57.12;97464.22;619572;229;65117;-60
2023/05/14 07:30:09;;;;;;;;;;;;;;;20.54;57.36;97458.88;619622;229;67223;-60
2023/05/14 07:32:37;;;;;;;;;;;;;;;20.53;57.43;97449.23;619667;229;66870;-60
2023/05/14 07:35:05;;;;;;;;;;;;;;;20.54;57.18;97444.70;619582;229;65114;-59
2023/05/14 07:37:33;;;;;;;;;;;;;;;20.54;57.19;97453.53;619616;229;67016;-59
2023/05/14 07:40:00;;;;;;;;;;;;;;;20.54;57.42;97448.20;619617;229;66811;-59
2023/05/14 07:42:28;;;;;;;;;;;;;;;20.54;56.97;97444.70;619588;229;64939;-59
2023/05/14 07:44:56;;;;;;;;;;;;;;;20.53;58.31;97440.40;619653;229;64918;-59
2023/05/14 07:47:23;;;;;;;;;;;;;;;20.53;58.06;97449.23;619595;229;67060;-59
2023/05/14 07:49:52;;;;;;;;;;;;;;;20.53;58.25;97446.56;619563;229;65025;-59
2023/05/14 07:52:20;;;;;;;;;;;;;;;20.53;58.73;97448.41;619571;229;67084;-59
2023/05/14 07:54:47;;;;;;;;;;;;;;;20.53;58.17;97443.89;619590;229;66990;-59
2023/05/14 07:57:15;;;;;;;;;;;;;;;20.52;58.70;97452.95;619620;229;65255;-59
2023/05/14 07:59:42;;;;;;;;;;;;;;;20.52;57.90;97455.62;619585;229;67211;-59
2023/05/14 08:02:11;;;;;;;;;;;;;;;20.52;57.38;97442.27;619576;229;67074;-59
2023/05/14 08:04:39;;;;;;;;;;;;;;;20.52;57.97;97444.94;619591;229;63808;-59
2023/05/14 08:07:07;;;;;;;;;;;;;;;20.52;56.96;97447.61;615143;229;65072;-59
2023/05/14 08:09:35;;;;;;;;;;;;;;;20.52;57.43;97447.61;619641;229;66797;-59
2023/05/14 08:12:02;;;;;;;;;;;;;;;20.53;57.66;97461.76;622147;227;65031;-59
2023/05/14 08:14:30;;;;;;;;;;;;;;;20.51;57.25;97462.00;624032;227;67272;-59
2023/05/14 08:16:57;;;;;;;;;;;;;;;20.52;57.97;97468.17;623997;227;67521;-59
2023/05/14 08:19:26;;;;;;;;;;;;;;;20.52;58.34;97471.64;624063;227;65128;-59
2023/05/14 08:21:53;;;;;;;;;;;;;;;20.52;57.76;97482.31;624008;227;64888;-59
2023/05/14 08:24:21;;;;;;;;;;;;;;;20.51;57.95;97487.91;624116;227;64913;-59
2023/05/14 08:26:48;;;;;;;;;;;;;;;20.51;58.71;97503.92;624029;227;62939;-59
2023/05/14 08:29:16;;;;;;;;;;;;;;;20.51;58.43;97510.06;619770;227;64830;-59
2023/05/14 08:31:43;;;;;;;;;;;;;;;20.51;58.29;97511.93;621511;227;64994;-59
2023/05/14 08:34:11;;;;;;;;;;;;;;;20.50;59.21;97511.13;624067;227;64861;-59
2023/05/14 08:36:38;;;;;;;;;;;;;;;20.50;58.50;97503.13;624092;227;66758;-59
2023/05/14 08:39:09;;;;;;;;;;;;;;;20.51;57.51;97501.25;624025;227;64935;-59
2023/05/14 08:41:37;;;;;;;;;;;;;;;20.50;57.63;97503.13;623985;227;63889;-59
2023/05/14 08:44:08;;;;;;;;;;;;;;;20.50;58.00;97497.78;624016;227;65142;-59
2023/05/14 08:46:37;;;;;;;;;;;;;;;20.49;58.05;97495.35;623938;227;64858;-59
2023/05/14 08:49:10;;;;;;;;;;;;;;;20.50;58.13;97502.33;624071;227;65029;-59
2023/05/14 08:51:38;;;;;;;;;;;;;;;20.49;58.17;97508.70;624016;227;64941;-59
2023/05/14 08:54:05;;;;;;;;;;;;;;;20.49;58.98;97512.20;624045;227;67079;-59
2023/05/14 08:56:33;;;;;;;;;;;;;;;20.48;57.78;97518.58;624001;227;65038;-59
2023/05/14 08:59:00;;;;;;;;;;;;;;;20.49;58.01;97522.88;624044;227;67283;-59
2023/05/14 09:01:28;;;;;;;;;;;;;;;20.50;58.35;97524.48;624051;227;67207;-59
2023/05/14 09:03:56;;;;;;;;;;;;;;;20.49;56.97;97516.71;624070;227;63816;-59
2023/05/14 09:06:24;;;;;;;;;;;;;;;20.49;57.85;97514.05;624011;227;67156;-59
2023/05/14 09:08:51;;;;;;;;;;;;;;;20.48;60.81;97515.11;623983;227;65143;-59
2023/05/14 09:11:19;;;;;;;;;;;;;;;20.48;59.65;97517.78;624000;227;62894;-59
2023/05/14 09:13:47;;;;;;;;;;;;;;;20.47;57.72;97519.66;624037;227;64830;-59
2023/05/14 09:16:15;;;;;;;;;;;;;;;20.47;58.25;97516.19;624081;227;67029;-59
2023/05/14 09:18:43;;;;;;;;;;;;;;;20.47;58.27;97506.30;624032;227;65067;-59
2023/05/14 09:21:12;;;;;;;;;;;;;;;20.47;59.95;97508.17;624002;227;67283;-59
2023/05/14 09:23:44;;;;;;;;;;;;;;;20.47;58.51;97505.51;624057;227;66817;-59
2023/05/14 09:26:11;;;;;;;;;;;;;;;20.47;58.55;97502.84;624049;227;64943;-59
2023/05/14 09:28:40;;;;;;;;;;;;;;;20.46;58.74;97502.03;624048;227;67221;-59
2023/05/14 09:31:09;;;;;;;;;;;;;;;20.47;58.29;97500.16;616449;228;67374;-59
2023/05/14 09:33:37;;;;;;;;;;;;;;;20.46;57.63;97501.20;623665;227;64904;-59
2023/05/14 09:36:06;;;;;;;;;;;;;;;20.46;57.82;97503.88;624019;227;67814;-59
2023/05/14 09:38:34;;;;;;;;;;;;;;;20.45;57.35;97492.40;624043;227;67112;-59
2023/05/14 09:41:03;;;;;;;;;;;;;;;20.45;57.78;97487.06;624083;227;62980;-59
2023/05/14 09:43:32;;;;;;;;;;;;;;;20.46;58.98;97474.51;624053;227;67080;-59
2023/05/14 09:46:00;;;;;;;;;;;;;;;20.45;57.56;97476.38;624058;227;64985;-59
2023/05/14 09:48:29;;;;;;;;;;;;;;;20.44;58.37;97471.31;623747;227;62938;-59
2023/05/14 09:50:56;;;;;;;;;;;;;;;20.46;58.30;97469.17;624005;227;64458;-59
2023/05/14 09:53:24;;;;;;;;;;;;;;;20.45;57.83;97463.03;624041;227;67005;-59
2023/05/14 09:55:52;;;;;;;;;;;;;;;20.44;57.79;97461.44;624098;227;63064;-60
2023/05/14 09:58:20;;;;;;;;;;;;;;;20.45;58.54;97456.89;624022;227;67485;-60
2023/05/14 10:00:48;;;;;;;;;;;;;;;20.44;58.00;97453.42;624006;227;66821;-60
2023/05/14 10:03:15;;;;;;;;;;;;;;;20.43;57.96;97443.79;624014;227;63805;-60
2023/05/14 10:05:43;;;;;;;;;;;;;;;20.44;58.30;97440.08;624032;227;67278;-60
2023/05/14 10:08:31;;;;;;;;;;;;;;;20.44;57.88;97434.73;624063;227;64803;-60
2023/05/14 10:11:00;;;;;;;;;;;;;;;20.44;57.73;97434.73;623261;227;62948;-60
2023/05/14 10:13:29;;;;;;;;;;;;;;;20.43;58.81;97434.98;619567;229;67219;-60
2023/05/14 10:16:01;;;;;;;;;;;;;;;20.43;59.08;97433.11;619564;229;64609;-60
2023/05/14 10:18:32;;;;;;;;;;;;;;;20.43;58.71;97422.44;615768;228;47037;-60
2023/05/14 10:21:06;;;;;;;;;;;;;;;20.42;58.02;97431.52;618424;229;64997;-60
2023/05/14 10:23:36;;;;;;;;;;;;;;;20.42;59.06;97431.52;619522;229;67056;-60
2023/05/14 10:26:06;;;;;;;;;;;;;;;20.42;58.75;97412.83;619630;229;62840;-60
2023/05/14 10:28:34;;;;;;;;;;;;;;;20.42;59.60;97415.50;619620;229;65145;-61
2023/05/14 10:31:02;;;;;;;;;;;;;;;20.42;58.95;97420.03;619603;229;66900;-60
2023/05/14 10:33:29;;;;;;;;;;;;;;;20.41;58.88;97419.23;619593;229;65026;-60
2023/05/14 10:36:01;;;;;;;;;;;;;;;20.39;58.11;97406.14;619618;229;67198;-60
2023/05/14 10:38:35;;;;;;;;;;;;;;;20.40;58.79;97393.59;619683;229;64495;-60
2023/05/14 10:41:04;;;;;;;;;;;;;;;20.40;58.29;97385.58;619621;229;62929;-60
2023/05/14 10:43:33;;;;;;;;;;;;;;;20.40;58.26;97382.91;619605;229;64634;-60
2023/05/14 10:46:01;;;;;;;;;;;;;;;20.40;58.61;97378.37;619519;229;65119;-60
2023/05/14 10:48:29;;;;;;;;;;;;;;;20.40;58.48;97375.70;619598;229;65066;-60
2023/05/14 10:50:57;;;;;;;;;;;;;;;20.40;58.30;97381.03;619642;229;67054;-61
2023/05/14 10:53:38;;;;;;;;;;;;;;;20.40;58.21;97374.90;619591;229;64679;-60
2023/05/14 10:56:10;;;;;;;;;;;;;;;20.40;58.14;97369.56;619616;229;65097;-60
2023/05/14 10:58:38;;;;;;;;;;;;;;;20.40;59.63;97370.36;619613;229;66942;-60
2023/05/14 11:01:07;;;;;;;;;;;;;;;20.39;60.64;97373.30;619557;229;66860;-60
2023/05/14 11:03:42;;;;;;;;;;;;;;;20.38;58.63;97372.50;619618;229;65071;-60
2023/05/14 11:06:12;;;;;;;;;;;;;;;20.38;59.60;97367.16;619461;228;64628;-60
2023/05/14 11:08:41;;;;;;;;;;;;;;;20.37;58.68;97365.54;619582;229;67041;-60
2023/05/14 11:11:09;;;;;;;;;;;;;;;20.38;59.46;97369.84;608663;229;63853;-60
2023/05/14 11:13:37;;;;;;;;;;;;;;;20.38;59.68;97366.37;616500;229;65063;-60
2023/05/14 11:16:06;;;;;;;;;;;;;;;20.38;58.99;97367.16;615660;229;67038;-60
2023/05/14 11:18:40;;;;;;;;;;;;;;;20.38;58.97;97355.69;616151;229;65049;-60
2023/05/14 11:21:04;;;;;;;;;;;;;;;20.39;58.04;97362.63;616220;229;67301;-60
2023/05/14 11:23:33;;;;;;;;;;;;;;;20.38;59.15;97361.83;616327;228;64857;-60
2023/05/14 11:26:00;;;;;;;;;;;;;;;20.38;58.37;97353.02;616464;229;63023;-60
2023/05/14 11:28:30;;;;;;;;;;;;;;;20.38;58.63;97335.13;616295;229;47032;-60
2023/05/14 11:30:57;;;;;;;;;;;;;;;20.38;58.42;97345.02;616458;229;67082;-60
2023/05/14 11:33:27;;;;;;;;;;;;;;;20.38;57.84;97345.81;616461;229;65093;-60
2023/05/14 11:35:54;;;;;;;;;;;;;;;20.38;59.47;97358.36;616464;229;64968;-60
2023/05/14 11:38:22;;;;;;;;;;;;;;;20.37;60.09;97346.05;615536;229;67139;-60
2023/05/14 11:40:53;;;;;;;;;;;;;;;20.37;59.44;97343.39;615168;229;65044;-60
2023/05/14 11:43:24;;;;;;;;;;;;;;;20.37;59.28;97344.19;616043;229;65186;-60
2023/05/14 11:45:52;;;;;;;;;;;;;;;20.37;59.42;97332.71;616088;230;65143;-60
2023/05/14 11:48:20;;;;;;;;;;;;;;;20.36;58.57;97336.45;616108;229;62604;-60
2023/05/14 11:50:48;;;;;;;;;;;;;;;20.36;58.57;97337.25;617758;229;64882;-60
2023/05/14 11:53:19;;;;;;;;;;;;;;;20.37;58.73;97338.84;617269;229;66750;-60
2023/05/14 11:55:47;;;;;;;;;;;;;;;20.36;58.12;97334.58;616436;229;65049;-60
2023/05/14 11:58:15;;;;;;;;;;;;;;;20.35;58.16;97346.33;617285;229;67126;-60
2023/05/14 12:00:44;;;;;;;;;;;;;;;20.36;58.59;97337.25;616478;229;65264;-61
2023/05/14 12:03:12;;;;;;;;;;;;;;;20.36;57.80;97339.13;616378;229;62984;-61
2023/05/14 12:05:42;;;;;;;;;;;;;;;20.35;60.01;97351.67;617120;229;44385;-60
2023/05/14 12:08:24;;;;;;;;;;;;;;;20.36;60.04;97347.13;616428;229;67030;-61
2023/05/14 12:10:52;;;;;;;;;;;;;;;20.35;58.78;97332.16;616999;229;65023;-61
2023/05/14 12:13:20;;;;;;;;;;;;;;;20.35;58.24;97318.81;620740;228;67325;-61
2023/05/14 12:15:49;;;;;;;;;;;;;;;20.34;59.23;97307.34;622692;227;67055;-61
2023/05/14 12:18:19;;;;;;;;;;;;;;;20.35;58.94;97313.47;623198;227;62953;-61
2023/05/14 12:20:50;;;;;;;;;;;;;;;20.34;58.37;97322.55;624054;227;66886;-61
2023/05/14 12:23:19;;;;;;;;;;;;;;;20.35;58.93;97316.14;624047;227;67012;-61
2023/05/14 12:25:50;;;;;;;;;;;;;;;20.34;59.02;97312.67;623772;227;62969;-61
2023/05/14 12:28:18;;;;;;;;;;;;;;;20.34;59.54;97298.53;624055;227;67453;-61
2023/05/14 12:30:46;;;;;;;;;;;;;;;20.34;58.33;97301.20;624011;227;66979;-60
2023/05/14 12:33:14;;;;;;;;;;;;;;;20.34;59.02;97306.54;624023;227;63016;-60
2023/05/14 12:35:41;;;;;;;;;;;;;;;20.34;59.15;97302.00;624043;227;64869;-61
2023/05/14 12:38:09;;;;;;;;;;;;;;;20.33;58.17;97295.06;624044;227;67213;-61
2023/05/14 12:40:36;;;;;;;;;;;;;;;20.33;58.33;97297.73;624067;227;65198;-61
2023/05/14 12:43:03;;;;;;;;;;;;;;;20.34;58.52;97296.66;624044;227;67192;-61
2023/05/14 12:45:31;;;;;;;;;;;;;;;20.34;59.80;97293.20;624001;227;64959;-61
2023/05/14 12:47:58;;;;;;;;;;;;;;;20.33;59.98;97294.27;624031;227;65030;-61
2023/05/14 12:50:27;;;;;;;;;;;;;;;20.32;59.41;97288.10;624004;227;65007;-61
2023/05/14 12:52:57;;;;;;;;;;;;;;;20.33;58.88;97283.59;624065;227;64991;-61